메인 페이지
METAR-TAF:

METAR-TAF

공항 :

차트라파티 시바지 국제공항

뭄바이, 인도

위도: 19-07N, 경도: 072-51E, 고도: 8m

현재 날씨관측

예보는 13분 전, 15:30시(UTC)에 발표되었습니다.
서남서10kt
온도 27°C
습도 89%
기압 1005 hPa
시정: 3000m
고도 1800ft 상공 구름 조금
고도 2500ft 상공 구름 보통
고도 10000ft 상공 구름 많음
연무

METAR: VABB 191530Z 25010KT 3000 HZ FEW018 SCT025 BKN100 27/25 Q1005 NOSIG

시각: 21:13 (15:43 UTC)

예보

예보는 1 시간 43분 전, 14:00시(UTC)에 발표되었습니다.
예보 대상 시간: 19일 15시부터 19일 24시까지 (UTC)
시정: 3000m
고도 1800ft 상공 구름 보통
고도 2500ft 상공 구름 보통
고도 10000ft 상공 구름 많음
연무
일시적
19일 15시부터 19일 24시까지 (UTC)
시정: 1500m
고도 1200ft 상공 구름 보통
고도 1800ft 상공 구름 보통
고도 2500ft 상공 구름 조금, 타워링 적운.
고도 8000ft 상공 흐림
소나기, 비
전환 중
19일 16시부터 19일 18시까지 (UTC)
서남서12kt

TAF: VABB 191400Z 1915/1924 24008G18 3000 HZ SCT018 SCT025 BKN100 TEMPO 1915/1924 1500 SHRA RA SCT012 SCT018 FEW025TCU OVC080 BECMG 1916/1918 25012KT

4,000개 이상의 공항 관측 자료 및 예보 (METAR 및 TAF 보고).

지도상에서 검색 가능한 기상관측소가 노란 점과 빨간 점으로 표시되어 있습니다.

기상관측소 명을 보려면 표시 위로 마우스를 이동하세요.

날씨 관측과 예보를 보려면 클릭하세요.

지도 변경 : 확대하려면 엑스 표시가 있는 녹색 버튼, 축소하려면 빼기 표시가 있는 녹색 버튼, 다음 페이지의 지도를 보려면 녹색 화살표를 클릭하세요.


METAR-TAF: